Terminal Aerodrome Forecast
Issued by NWS Twin Cities, MN

Home | Current Version | Previous Version | Graphics & Text | Print | Product List | Glossary On
Versions: 1 2 3 4 5 6 7 8 9 10 11 12 13 14 15 16 17 18 19
000
FTUS43 KMPX 271731
TAFEAU
TAF
KEAU 271731Z 2718/2818 25012KT P6SM SKC
     FM272000 25010KT P6SM SCT080
     FM280200 VRB03KT P6SM SKC
     FM281500 20008KT P6SM SCT250=

USA.gov is the U.S. government's official web portal to all federal, state and local government web resources and services.